Time;durP1;ratioP1;P1;durP2;ratioP2;P2;SDS_P1;SDS_P2;PMS_P1;PMS_P2;Temp;Humidity;BMP_temperature;BMP_pressure;BME280_temperature;BME280_humidity;BME280_pressure;Samples;Min_cycle;Max_cycle;Signal;HPM_P1;HPM_P2
2023/02/22 00:00:18;;;;;;;;;14.50;14.25;;;;;21.09;40.87;101190.72;5037561;28;45352;-74
2023/02/22 00:02:47;;;;;;;;;17.75;13.25;;;;;21.06;40.73;101187.41;5037315;28;47426;-74
2023/02/22 00:05:15;;;;;;;;;11.25;10.00;;;;;21.06;40.89;101187.41;5037516;28;45335;-74
2023/02/22 00:07:43;;;;;;;;;13.50;10.00;;;;;21.05;40.73;101185.75;5037279;28;45412;-74
2023/02/22 00:10:12;;;;;;;;;17.25;13.75;;;;;21.04;40.77;101186.75;5037528;28;45426;-73
2023/02/22 00:12:39;;;;;;;;;16.75;13.75;;;;;21.04;40.88;101180.63;5037213;28;47043;-74
2023/02/22 00:15:04;;;;;;;;;15.00;13.25;;;;;21.02;40.82;101175.53;5037376;28;45434;-74
2023/02/22 00:17:30;;;;;;;;;14.50;13.25;;;;;20.92;40.59;101151.81;5037328;28;45405;-74
2023/02/22 00:19:55;;;;;;;;;16.75;14.00;;;;;21.00;40.63;101163.41;5037238;28;45343;-74
2023/02/22 00:22:20;;;;;;;;;14.00;13.50;;;;;21.00;40.53;101168.72;5037235;28;45370;-74
2023/02/22 00:24:47;;;;;;;;;17.50;13.50;;;;;20.99;40.46;101162.59;5037160;28;45332;-74
2023/02/22 00:27:12;;;;;;;;;13.00;9.25;;;;;21.00;40.70;101166.88;5037362;28;45469;-73
2023/02/22 00:29:43;;;;;;;;;13.00;13.00;;;;;20.99;40.64;101167.03;5037257;28;45279;-73
2023/02/22 00:32:08;;;;;;;;;18.50;16.25;;;;;20.98;40.61;101166.22;5017267;28;46245;-74
2023/02/22 00:34:33;;;;;;;;;13.50;13.50;;;;;20.99;40.69;101161.75;5016955;28;45283;-74
2023/02/22 00:37:01;;;;;;;;;12.50;12.50;;;;;20.99;40.72;101161.75;5016910;28;45268;-74
2023/02/22 00:39:27;;;;;;;;;14.25;11.75;;;;;20.89;40.32;101136.31;5017218;28;45445;-73
2023/02/22 00:41:52;;;;;;;;;15.00;13.00;;;;;20.98;40.72;101149.50;5016961;28;46063;-74
2023/02/22 00:44:17;;;;;;;;;15.25;15.25;;;;;20.99;40.60;101154.66;5017116;28;45408;-73
2023/02/22 00:46:43;;;;;;;;;18.50;14.25;;;;;20.99;40.73;101137.94;5017109;28;45291;-73
2023/02/22 00:49:08;;;;;;;;;11.25;10.50;;;;;20.98;40.47;101138.94;5017069;28;45295;-74
2023/02/22 00:51:33;;;;;;;;;12.75;11.75;;;;;20.97;40.84;101127.53;5016609;28;46098;-73
2023/02/22 00:53:59;;;;;;;;;11.00;10.00;;;;;20.95;40.46;101135.63;5016898;28;45326;-74
2023/02/22 00:56:24;;;;;;;;;13.75;12.75;;;;;20.95;40.58;101135.63;5016959;28;45399;-73
2023/02/22 00:58:49;;;;;;;;;14.50;12.25;;;;;20.96;40.54;101136.47;5016915;28;45280;-74
2023/02/22 01:01:15;;;;;;;;;12.50;12.50;;;;;20.96;40.60;101131.16;4982540;28;46934;-74
2023/02/22 01:03:40;;;;;;;;;14.25;12.25;;;;;20.95;40.59;101129.50;5032007;28;45378;-74
2023/02/22 01:06:06;;;;;;;;;12.75;12.75;;;;;20.90;40.68;101124.72;5036530;28;45574;-73
2023/02/22 01:08:32;;;;;;;;;13.00;12.00;;;;;20.94;40.44;101147.22;5036690;28;45367;-74
2023/02/22 01:10:57;;;;;;;;;11.75;11.00;;;;;20.93;40.63;101142.91;5036539;28;45627;-74
2023/02/22 01:13:22;;;;;;;;;17.50;16.00;;;;;20.94;40.47;101143.75;5036656;28;45739;-74
2023/02/22 01:15:48;;;;;;;;;11.50;9.25;;;;;20.94;40.69;101133.16;5036614;28;45435;-74
2023/02/22 01:18:16;;;;;;;;;11.75;11.50;;;;;20.91;40.65;101129.03;5036556;28;45306;-74
2023/02/22 01:20:46;;;;;;;;;12.50;12.50;;;;;20.93;40.67;101129.69;5035857;28;46990;-74
2023/02/22 01:23:13;;;;;;;;;17.50;14.25;;;;;20.93;40.65;101132.31;5036253;28;45421;-74
2023/02/22 01:25:38;;;;;;;;;13.75;13.75;;;;;20.82;40.57;101109.66;5036401;28;45357;-74
2023/02/22 01:28:05;;;;;;;;;14.00;11.75;;;;;20.81;40.98;101113.31;5036531;28;45342;-73
2023/02/22 01:30:33;;;;;;;;;13.50;12.00;;;;;20.91;40.41;101125.53;5035917;28;46393;-74
2023/02/22 01:33:00;;;;;;;;;11.25;11.25;;;;;20.91;40.44;101123.72;5035823;28;45647;-73
2023/02/22 01:35:29;;;;;;;;;8.75;7.75;;;;;20.90;40.44;101116.78;5035231;28;45541;-74
2023/02/22 01:37:57;;;;;;;;;15.25;13.00;;;;;20.90;40.48;101118.59;5035982;28;45359;-73
2023/02/22 01:40:31;;;;;;;;;16.00;14.75;;;;;20.90;40.28;101118.59;5035723;28;46088;-74
2023/02/22 01:43:03;;;;;;;;;12.00;12.00;;;;;20.89;40.35;101114.31;5018828;28;45461;-74
2023/02/22 01:45:28;;;;;;;;;14.50;13.00;;;;;20.89;40.87;101119.59;5036009;28;45447;-74
2023/02/22 01:47:57;;;;;;;;;16.00;13.00;;;;;20.87;40.28;101111.00;5035675;28;45371;-74
2023/02/22 01:50:22;;;;;;;;;14.75;13.00;;;;;20.89;40.67;101119.59;5035856;28;45398;-74
2023/02/22 01:52:48;;;;;;;;;15.75;14.00;;;;;20.88;40.48;101116.13;5035777;28;45229;-74
2023/02/22 01:55:16;;;;;;;;;13.75;13.00;;;;;20.88;40.17;101110.84;5035908;28;45346;-74
2023/02/22 01:57:42;;;;;;;;;13.50;13.50;;;;;20.89;40.54;101111.66;5035830;28;45296;-73
2023/02/22 02:00:11;;;;;;;;;15.00;14.00;;;;;20.88;40.53;101105.53;5035614;28;45803;-74
2023/02/22 02:02:40;;;;;;;;;16.25;14.00;;;;;20.81;40.52;101089.53;5035224;28;45533;-74
2023/02/22 02:05:07;;;;;;;;;13.50;12.25;;;;;20.89;40.33;101101.09;5035714;28;45345;-74
2023/02/22 02:07:34;;;;;;;;;16.00;13.00;;;;;20.89;40.67;101103.72;5035755;28;45500;-73
2023/02/22 02:10:02;;;;;;;;;14.00;12.25;;;;;20.83;40.02;101084.91;5035553;28;45380;-73
2023/02/22 02:12:30;;;;;;;;;13.25;12.00;;;;;20.90;40.67;101102.72;5035484;28;45472;-74
2023/02/22 02:15:20;;;;;;;;;14.25;13.25;;;;;20.90;40.29;101087.69;5035660;28;45471;-74
2023/02/22 02:17:48;;;;;;;;;15.00;13.00;;;;;20.90;40.69;101081.56;5035353;28;45336;-74
2023/02/22 02:20:36;;;;;;;;;12.00;12.00;;;;;20.88;40.72;101087.03;5035191;28;46230;-73
2023/02/22 02:23:20;;;;;;;;;13.75;12.25;;;;;20.89;40.55;101093.16;5035072;28;45342;-74
2023/02/22 02:26:31;;;;;;;;;12.50;11.50;;;;;20.89;40.59;101090.50;5035615;28;45354;-74
2023/02/22 02:29:05;;;;;;;;;10.00;10.00;;;;;20.88;40.68;101092.31;4954347;28;45564;-74
2023/02/22 02:31:52;;;;;;;;;13.50;13.50;;;;;20.88;40.46;101089.69;4953560;28;47193;-74
2023/02/22 02:34:30;;;;;;;;;12.75;12.00;;;;;20.88;40.14;101088.84;4954132;28;45400;-74
2023/02/22 02:37:09;;;;;;;;;13.50;13.00;;;;;20.88;40.29;101089.69;4954410;28;45420;-74
2023/02/22 02:39:39;;;;;;;;;15.25;13.50;;;;;20.87;40.28;101074.78;4954280;28;45456;-74
2023/02/22 02:42:11;;;;;;;;;18.25;15.00;;;;;20.79;40.26;101062.41;4954311;28;46351;-73
2023/02/22 02:44:42;;;;;;;;;17.00;13.75;;;;;20.85;40.57;101067.03;4954079;28;45939;-73
2023/02/22 02:47:15;;;;;;;;;16.25;11.50;;;;;20.85;40.45;101069.69;4954060;28;45485;-74
2023/02/22 02:49:50;;;;;;;;;15.25;14.00;;;;;20.85;40.27;101063.56;4957116;28;45390;-73
2023/02/22 02:52:18;;;;;;;;;15.50;13.75;;;;;20.87;40.39;101071.34;4957438;28;45389;-73
2023/02/22 02:54:45;;;;;;;;;15.00;13.00;;;;;20.85;40.52;101067.03;4957667;28;45444;-74
2023/02/22 02:57:10;;;;;;;;;13.50;13.00;;;;;20.85;40.45;101063.56;4957567;28;45458;-73
2023/02/22 02:59:37;;;;;;;;;17.25;15.25;;;;;20.83;40.33;101069.03;4957412;28;45454;-73
2023/02/22 03:02:27;;;;;;;;;12.75;12.25;;;;;20.84;40.48;101065.38;4957042;28;45934;-73
2023/02/22 03:05:07;;;;;;;;;15.00;14.00;;;;;20.83;40.22;101066.38;4968337;28;45467;-74
2023/02/22 03:07:39;;;;;;;;;15.00;14.00;;;;;20.84;40.27;101069.84;5038509;28;45410;-74
2023/02/22 03:10:30;;;;;;;;;14.50;14.00;;;;;20.82;40.50;101056.78;5038516;28;45294;-74
2023/02/22 03:13:18;;;;;;;;;13.50;13.25;;;;;20.83;40.09;101057.63;5038275;28;45319;-73
2023/02/22 03:16:01;;;;;;;;;17.50;15.50;;;;;20.82;40.40;101051.50;5037956;28;45426;-73
2023/02/22 03:18:43;;;;;;;;;11.00;10.50;;;;;20.82;40.47;101050.66;5038226;28;45382;-73
2023/02/22 03:21:29;;;;;;;;;14.50;14.50;;;;;20.82;40.56;101046.19;5038302;28;45343;-74
2023/02/22 03:24:10;;;;;;;;;17.00;15.25;;;;;20.82;40.18;101046.19;5038134;28;46235;-73
2023/02/22 03:26:42;;;;;;;;;14.25;12.75;;;;;20.83;40.21;101052.31;5038158;28;45299;-74
2023/02/22 03:29:11;;;;;;;;;14.00;14.00;;;;;20.83;40.15;101054.97;5037923;28;45586;-74
2023/02/22 03:31:41;;;;;;;;;13.75;12.75;;;;;20.77;40.44;101047.69;5037951;28;45448;-74
2023/02/22 03:34:15;;;;;;;;;17.75;14.75;;;;;20.84;40.27;101059.28;5037842;28;46318;-73
2023/02/22 03:36:54;;;;;;;;;20.25;13.50;;;;;20.84;39.91;101056.63;5038063;28;45356;-73
2023/02/22 03:39:27;;;;;;;;;15.50;13.75;;;;;20.84;40.19;101054.00;5038026;28;45342;-73
2023/02/22 03:41:52;;;;;;;;;14.00;12.50;;;;;20.84;40.51;101059.28;5037490;28;45353;-73
2023/02/22 03:44:23;;;;;;;;;14.25;12.00;;;;;20.83;40.18;101053.16;5037455;28;45358;-73
2023/02/22 03:46:51;;;;;;;;;15.25;15.25;;;;;20.84;40.32;101057.44;5037864;28;45311;-73
2023/02/22 03:49:38;;;;;;;;;14.75;12.00;;;;;20.81;40.52;101047.22;5037884;28;45429;-74
2023/02/22 03:52:05;;;;;;;;;12.25;11.50;;;;;20.84;40.33;101051.34;5037852;28;45267;-74
2023/02/22 03:54:31;;;;;;;;;13.00;13.00;;;;;20.70;40.08;101029.88;5037571;28;45311;-74
2023/02/22 03:57:03;;;;;;;;;13.50;11.50;;;;;20.76;40.40;101041.59;5037595;28;45304;-74
2023/02/22 03:59:28;;;;;;;;;15.75;15.00;;;;;20.84;40.42;101051.34;5036811;28;45497;-73
2023/02/22 04:01:55;;;;;;;;;11.75;11.75;;;;;20.84;40.13;101054.78;5037545;28;45465;-73
2023/02/22 04:04:22;;;;;;;;;16.00;14.00;;;;;20.75;40.39;101042.59;5019808;28;47201;-74
2023/02/22 04:06:48;;;;;;;;;11.75;11.75;;;;;20.83;40.61;101050.50;5037559;28;45295;-74
2023/02/22 04:09:14;;;;;;;;;13.25;10.25;;;;;20.82;40.43;101046.19;5037554;28;45172;-74
2023/02/22 04:11:39;;;;;;;;;15.50;13.50;;;;;20.82;40.48;101038.28;5037592;28;45295;-73
2023/02/22 04:14:05;;;;;;;;;11.00;10.50;;;;;20.76;39.99;101023.09;5037134;28;46767;-74
2023/02/22 04:16:30;;;;;;;;;11.50;11.25;;;;;20.80;40.40;101029.69;5037397;28;45287;-74
2023/02/22 04:18:55;;;;;;;;;14.50;12.75;;;;;20.83;40.47;101039.94;5037404;28;45367;-74
2023/02/22 04:21:21;;;;;;;;;16.75;12.50;;;;;20.82;40.04;101051.50;5037464;28;45431;-74
2023/02/22 04:23:46;;;;;;;;;15.00;12.75;;;;;20.76;40.04;101040.78;5036232;28;45334;-73
2023/02/22 04:26:11;;;;;;;;;12.75;12.75;;;;;20.82;40.05;101045.38;5037253;28;45394;-73
2023/02/22 04:28:37;;;;;;;;;10.50;10.50;;;;;20.82;40.29;101040.09;5037061;28;45471;-73
2023/02/22 04:31:02;;;;;;;;;16.25;15.50;;;;;20.82;40.16;101032.16;5037023;28;45549;-73
2023/02/22 04:33:27;;;;;;;;;14.00;13.00;;;;;20.81;40.21;101033.16;5036947;28;46130;-73
2023/02/22 04:35:53;;;;;;;;;13.75;11.00;;;;;20.78;40.14;101030.84;5036853;28;45928;-73
2023/02/22 04:38:18;;;;;;;;;13.25;11.25;;;;;20.81;40.17;101031.34;5037206;28;45378;-73
2023/02/22 04:40:44;;;;;;;;;14.50;13.00;;;;;20.81;40.14;101018.13;5037249;28;45315;-74
2023/02/22 04:43:09;;;;;;;;;16.25;14.75;;;;;20.75;40.37;101016.13;5036473;28;45935;-74
2023/02/22 04:45:34;;;;;;;;;14.75;13.75;;;;;20.78;40.02;101029.03;5002545;28;45487;-74
2023/02/22 04:48:00;;;;;;;;;16.25;14.50;;;;;20.81;40.10;101034.00;5037058;28;45316;-74
2023/02/22 04:50:27;;;;;;;;;13.75;11.50;;;;;20.81;40.30;101030.50;5036931;28;45188;-73
2023/02/22 04:52:52;;;;;;;;;13.75;12.50;;;;;20.81;40.27;101015.47;5036808;28;46301;-74
2023/02/22 04:55:17;;;;;;;;;14.75;13.75;;;;;20.81;40.28;101007.56;5036658;28;45412;-72
2023/02/22 04:57:43;;;;;;;;;14.75;13.75;;;;;20.79;40.18;100993.66;5036644;28;45491;-75
2023/02/22 05:00:09;;;;;;;;;14.00;13.25;;;;;20.76;40.55;100996.66;5036673;28;45436;-72
2023/02/22 05:02:38;;;;;;;;;11.75;11.75;;;;;20.70;39.95;100989.38;5018524;28;47127;-74
2023/02/22 05:05:04;;;;;;;;;14.25;13.50;;;;;20.78;40.14;101007.88;5036552;28;45406;-74
2023/02/22 05:07:29;;;;;;;;;15.50;12.00;;;;;20.80;40.10;101013.00;5036561;28;45471;-75
2023/02/22 05:09:55;;;;;;;;;15.00;13.75;;;;;20.77;40.16;101005.38;5036666;28;45544;-74
2023/02/22 05:12:20;;;;;;;;;14.00;14.00;;;;;20.71;40.16;100988.41;5035224;28;45958;-74
2023/02/22 05:14:45;;;;;;;;;14.75;13.50;;;;;20.81;40.10;101006.72;5036488;28;45323;-74
2023/02/22 05:17:11;;;;;;;;;16.00;14.00;;;;;20.82;40.29;101021.56;5036706;28;45450;-75
2023/02/22 05:19:36;;;;;;;;;13.75;13.25;;;;;20.80;40.19;101028.84;5036392;28;46111;-74
2023/02/22 05:22:02;;;;;;;;;14.00;13.75;;;;;20.80;39.94;101031.50;5018622;28;47171;-74
2023/02/22 05:24:28;;;;;;;;;13.25;12.50;;;;;20.81;40.13;101033.16;5036484;28;45450;-75
2023/02/22 05:26:53;;;;;;;;;16.75;15.75;;;;;20.81;40.22;101036.63;5036065;28;45424;-74
2023/02/22 05:29:19;;;;;;;;;14.25;13.25;;;;;20.80;40.01;101032.34;5036454;28;45280;-74
2023/02/22 05:31:45;;;;;;;;;15.50;13.50;;;;;20.81;39.65;101027.88;5035776;28;47132;-74
2023/02/22 05:34:10;;;;;;;;;14.25;14.25;;;;;20.80;39.97;101021.75;5035898;28;45449;-74
2023/02/22 05:36:36;;;;;;;;;14.25;12.00;;;;;20.80;40.34;101027.03;5036250;28;45397;-74
2023/02/22 05:39:02;;;;;;;;;15.50;15.50;;;;;20.80;40.17;101029.69;5036175;28;45274;-73
2023/02/22 05:41:28;;;;;;;;;15.25;15.00;;;;;20.80;39.89;101034.13;5035609;28;45395;-74
2023/02/22 05:43:53;;;;;;;;;16.25;13.25;;;;;20.80;39.86;101044.72;5035959;28;45466;-75
2023/02/22 05:46:18;;;;;;;;;14.50;12.50;;;;;20.79;40.21;101043.09;5036133;28;45505;-74
2023/02/22 05:48:44;;;;;;;;;13.00;13.00;;;;;20.80;39.88;101044.72;5035961;28;45328;-75
2023/02/22 05:51:09;;;;;;;;;15.00;14.75;;;;;20.76;40.23;101035.47;5035951;28;45987;-74
2023/02/22 05:53:35;;;;;;;;;12.00;12.00;;;;;20.79;40.27;101032.50;5035956;28;45426;-74
2023/02/22 05:56:01;;;;;;;;;13.00;13.00;;;;;20.74;40.01;101031.16;5035640;28;45331;-75
2023/02/22 05:58:26;;;;;;;;;13.25;11.00;;;;;20.76;39.64;101028.38;5035873;28;45255;-74
2023/02/22 06:00:52;;;;;;;;;13.00;13.00;;;;;20.78;40.11;101030.84;5035390;28;46762;-74
2023/02/22 06:03:17;;;;;;;;;19.00;14.50;;;;;20.77;39.87;101031.81;5035783;28;45559;-74
2023/02/22 06:05:43;;;;;;;;;13.00;13.00;;;;;20.78;39.89;101036.13;5036008;28;45237;-73
2023/02/22 06:08:09;;;;;;;;;14.25;13.50;;;;;20.77;40.29;101037.94;5035677;28;45501;-73
2023/02/22 06:10:34;;;;;;;;;11.25;8.75;;;;;20.71;40.32;101036.78;5035299;28;47178;-75
2023/02/22 06:13:00;;;;;;;;;17.25;15.25;;;;;20.78;39.68;101052.00;5035563;28;45397;-73
2023/02/22 06:15:27;;;;;;;;;14.50;13.00;;;;;20.78;39.83;101055.47;5035957;28;45393;-75
2023/02/22 06:17:54;;;;;;;;;16.25;12.25;;;;;20.78;39.64;101055.47;5035766;28;45470;-74
2023/02/22 06:20:22;;;;;;;;;14.00;13.25;;;;;20.77;40.00;101059.09;5035147;28;46974;-74
2023/02/22 06:22:48;;;;;;;;;17.25;13.00;;;;;20.77;40.07;101059.09;5035271;28;45410;-74
2023/02/22 06:25:16;;;;;;;;;14.25;14.25;;;;;20.78;40.08;101052.84;5035220;28;45390;-75
2023/02/22 06:27:42;;;;;;;;;17.25;16.00;;;;;20.75;39.74;101053.16;5035098;28;45454;-75
2023/02/22 06:30:09;;;;;;;;;17.25;16.00;;;;;20.77;40.03;101051.16;5035258;28;45510;-76
2023/02/22 06:32:35;;;;;;;;;15.75;13.00;;;;;20.72;40.08;101040.25;5035355;28;45251;-74
2023/02/22 06:35:00;;;;;;;;;14.00;14.00;;;;;20.79;40.12;101062.41;5035433;28;45376;-77
2023/02/22 06:37:25;;;;;;;;;17.00;14.25;;;;;20.81;39.93;101062.25;5021968;28;45437;-76
2023/02/22 06:39:50;;;;;;;;;13.75;13.25;;;;;20.82;40.48;101070.00;5032040;28;46214;-78
2023/02/22 06:42:16;;;;;;;;;14.00;12.50;;;;;20.84;40.54;101075.16;5030814;28;45522;-76
2023/02/22 06:44:41;;;;;;;;;14.25;13.25;;;;;20.86;40.42;101073.16;5034468;28;45319;-77
2023/02/22 06:47:07;;;;;;;;;15.75;14.00;;;;;20.86;40.64;101081.09;5034551;28;46097;-78
2023/02/22 06:49:32;;;;;;;;;13.50;11.00;;;;;20.88;40.32;101084.38;5035115;28;45272;-72
2023/02/22 06:51:57;;;;;;;;;16.00;15.25;;;;;20.88;40.42;101086.19;5033618;28;45299;-74
2023/02/22 06:54:23;;;;;;;;;14.50;12.75;;;;;20.90;40.30;101092.13;5034555;28;45549;-75
2023/02/22 06:56:48;;;;;;;;;16.00;16.00;;;;;20.87;40.44;101089.84;5034505;28;45448;-75
2023/02/22 06:59:14;;;;;;;;;15.75;13.75;;;;;20.90;40.16;101100.06;5016388;28;47619;-74
2023/02/22 07:01:40;;;;;;;;;11.50;10.75;;;;;20.90;40.45;101105.38;5034115;28;45785;-74
2023/02/22 07:04:06;;;;;;;;;13.25;12.00;;;;;20.88;40.21;101105.53;5034178;28;45291;-74
2023/02/22 07:06:31;;;;;;;;;13.25;12.25;;;;;20.88;40.61;101105.53;5033904;28;45410;-73
2023/02/22 07:08:56;;;;;;;;;17.25;13.25;;;;;20.88;40.26;101104.72;5034438;28;45965;-76
2023/02/22 07:11:22;;;;;;;;;25.00;24.00;;;;;20.83;39.48;101110.50;5034461;28;45425;-76
2023/02/22 07:13:47;;;;;;;;;20.50;19.75;;;;;20.77;39.80;101114.63;5034187;28;45435;-76
2023/02/22 07:16:13;;;;;;;;;16.50;14.75;;;;;20.73;39.92;101110.69;5031019;28;45490;-76
2023/02/22 07:18:38;;;;;;;;;15.25;14.50;;;;;20.67;40.13;101103.38;5033697;28;45957;-76
2023/02/22 07:21:04;;;;;;;;;21.00;17.75;;;;;20.73;40.37;101115.97;5033751;28;45482;-76
2023/02/22 07:23:29;;;;;;;;;21.00;20.00;;;;;20.73;39.85;101116.78;5034820;28;45406;-76
2023/02/22 07:25:55;;;;;;;;;16.00;14.25;;;;;20.75;39.79;101127.19;5034165;28;45483;-76
2023/02/22 07:28:20;;;;;;;;;16.00;16.00;;;;;20.74;40.29;101123.72;5034468;28;46190;-75
2023/02/22 07:30:45;;;;;;;;;20.25;18.25;;;;;20.75;40.24;101113.97;5034086;28;45351;-76
2023/02/22 07:33:11;;;;;;;;;16.00;15.50;;;;;20.74;40.10;101118.44;5034488;28;45339;-76
2023/02/22 07:35:42;;;;;;;;;19.00;15.50;;;;;20.75;40.42;101119.25;5036586;28;45395;-75
2023/02/22 07:38:08;;;;;;;;;17.25;15.00;;;;;20.77;40.00;101127.03;5037551;28;46396;-75
2023/02/22 07:40:35;;;;;;;;;18.00;14.00;;;;;20.78;40.36;101126.03;5037567;28;45455;-76
2023/02/22 07:43:01;;;;;;;;;16.50;14.25;;;;;20.79;40.31;101130.34;5037842;28;45403;-76
2023/02/22 07:45:29;;;;;;;;;15.00;14.00;;;;;20.74;40.36;101128.19;5037626;28;45379;-76
2023/02/22 07:47:56;;;;;;;;;16.25;14.50;;;;;20.79;40.17;101139.09;5036623;28;45410;-76
2023/02/22 07:50:24;;;;;;;;;14.25;13.75;;;;;20.79;40.03;101138.28;5037140;28;45400;-73
2023/02/22 07:52:53;;;;;;;;;15.50;15.00;;;;;20.80;40.08;101139.91;5037763;28;45371;-77
2023/02/22 07:55:21;;;;;;;;;18.00;15.75;;;;;20.70;40.04;101118.94;5037606;28;45410;-76
2023/02/22 07:57:48;;;;;;;;;16.00;15.25;;;;;20.79;40.36;101130.34;5037248;28;46249;-75
2023/02/22 08:00:20;;;;;;;;;15.75;14.75;;;;;20.80;40.59;101132.81;5036991;28;46300;-76
2023/02/22 08:02:45;;;;;;;;;17.25;15.50;;;;;20.82;40.04;101135.28;5016339;28;45386;-75
2023/02/22 08:05:11;;;;;;;;;15.00;14.00;;;;;20.81;40.05;101138.94;5024228;28;45389;-76
2023/02/22 08:07:37;;;;;;;;;15.00;15.00;;;;;20.83;40.36;101145.72;5037451;28;46160;-75
2023/02/22 08:10:05;;;;;;;;;5.25;4.25;;;;;20.82;40.35;101145.88;5037024;28;45713;-74
2023/02/22 08:12:32;;;;;;;;;13.75;13.25;;;;;20.82;40.26;101149.34;5037233;28;45394;-75
2023/02/22 08:14:57;;;;;;;;;14.75;14.75;;;;;20.82;40.34;101157.28;5037406;28;45430;-75
2023/02/22 08:17:22;;;;;;;;;13.75;13.00;;;;;20.83;40.33;101155.47;5036607;28;47006;-76
2023/02/22 08:19:47;;;;;;;;;20.50;16.75;;;;;20.83;40.08;101163.41;5036939;28;45468;-75
2023/02/22 08:22:13;;;;;;;;;16.50;15.00;;;;;20.83;40.34;101155.47;5037513;28;45287;-76
2023/02/22 08:24:39;;;;;;;;;16.50;14.75;;;;;20.82;39.86;101149.34;5037311;28;45354;-75
2023/02/22 08:27:05;;;;;;;;;19.25;14.75;;;;;20.82;40.23;101151.16;5036945;28;47208;-75
2023/02/22 08:29:32;;;;;;;;;16.25;12.25;;;;;20.81;39.98;101163.56;5037075;28;45423;-75
2023/02/22 08:31:58;;;;;;;;;17.25;13.50;;;;;20.82;40.51;101167.84;5036816;28;45383;-75
2023/02/22 08:34:24;;;;;;;;;14.50;12.75;;;;;20.77;40.20;101153.47;5036426;28;45502;-75
2023/02/22 08:36:51;;;;;;;;;15.50;14.75;;;;;20.77;40.36;101162.22;5036519;28;46359;-75
2023/02/22 08:39:16;;;;;;;;;13.00;13.00;;;;;20.82;40.24;101177.59;5036537;28;45291;-76
2023/02/22 08:41:41;;;;;;;;;15.50;12.75;;;;;20.82;40.03;101173.16;5036909;28;45173;-75
2023/02/22 08:44:07;;;;;;;;;19.25;13.25;;;;;20.81;40.20;101176.78;5037023;28;45220;-74
2023/02/22 08:46:32;;;;;;;;;16.00;16.00;;;;;20.82;40.02;101175.78;5036644;28;46131;-75
2023/02/22 08:48:57;;;;;;;;;17.75;17.00;;;;;20.81;40.11;101163.56;5036237;28;45327;-75
2023/02/22 08:51:23;;;;;;;;;14.50;13.75;;;;;20.82;40.44;101167.84;5036826;28;45453;-75
2023/02/22 08:53:49;;;;;;;;;16.00;13.50;;;;;20.81;40.02;101162.75;5035943;28;45296;-75
2023/02/22 08:56:15;;;;;;;;;16.25;13.50;;;;;20.80;39.93;101164.56;5036462;28;45294;-75
2023/02/22 08:58:40;;;;;;;;;13.25;12.00;;;;;20.80;40.36;101161.91;5036590;28;45351;-75
2023/02/22 09:01:06;;;;;;;;;17.00;17.00;;;;;20.81;39.92;101155.63;5036602;28;45346;-76
2023/02/22 09:03:31;;;;;;;;;15.75;15.00;;;;;20.80;40.27;101156.63;5035882;28;45448;-75
2023/02/22 09:05:58;;;;;;;;;14.25;13.00;;;;;20.80;40.41;101164.56;5036497;28;45385;-75
2023/02/22 09:08:24;;;;;;;;;15.00;10.00;;;;;20.80;40.45;101159.25;5036210;28;45387;-76
2023/02/22 09:10:50;;;;;;;;;16.25;14.50;;;;;20.79;40.42;101159.44;5036506;28;45414;-76
2023/02/22 09:13:15;;;;;;;;;13.75;13.25;;;;;20.80;40.37;101161.91;5036419;28;45370;-75
2023/02/22 09:15:41;;;;;;;;;16.00;13.50;;;;;20.81;40.22;101160.09;5035854;28;47341;-75
2023/02/22 09:18:08;;;;;;;;;15.00;15.00;;;;;20.77;40.35;101146.38;5036051;28;45924;-77
2023/02/22 09:20:37;;;;;;;;;17.75;16.00;;;;;20.70;40.04;101132.16;5036287;28;45228;-75
2023/02/22 09:23:04;;;;;;;;;22.50;15.00;;;;;20.79;40.03;101143.56;5036046;28;45430;-75
2023/02/22 09:25:30;;;;;;;;;17.25;13.50;;;;;20.76;40.50;101134.16;5036086;28;46096;-76
2023/02/22 09:27:56;;;;;;;;;18.00;16.00;;;;;20.77;40.11;101132.31;5035767;28;45439;-75
2023/02/22 09:30:31;;;;;;;;;16.75;15.75;;;;;20.80;39.98;101131.97;5036022;28;45300;-75
2023/02/22 09:33:08;;;;;;;;;18.00;16.00;;;;;20.81;39.98;101136.28;5035687;28;45417;-75
2023/02/22 09:35:34;;;;;;;;;16.25;15.25;;;;;20.76;40.16;101125.38;5035657;28;46095;-75
2023/02/22 09:38:02;;;;;;;;;15.75;13.75;;;;;20.81;39.78;101131.00;5035817;28;45388;-75
2023/02/22 09:40:31;;;;;;;;;14.00;14.00;;;;;20.82;40.26;101132.66;5035804;28;45394;-75
2023/02/22 09:43:08;;;;;;;;;18.50;16.00;;;;;20.82;39.93;101130.00;5035996;28;45325;-76
2023/02/22 09:45:46;;;;;;;;;14.50;12.25;;;;;20.81;40.26;101126.56;5035673;28;45304;-75
2023/02/22 09:48:15;;;;;;;;;16.00;14.25;;;;;20.82;40.16;101119.41;5035216;28;45420;-76
2023/02/22 09:50:43;;;;;;;;;16.25;14.75;;;;;20.82;40.01;101120.25;5035804;28;45307;-75
2023/02/22 09:53:28;;;;;;;;;18.50;15.00;;;;;20.82;40.20;101116.78;5035844;28;45392;-75
2023/02/22 09:56:00;;;;;;;;;16.25;15.75;;;;;20.82;40.20;101117.59;5035332;28;47185;-75
2023/02/22 09:58:35;;;;;;;;;13.75;12.75;;;;;20.70;39.99;101098.63;5034975;28;45539;-76
2023/02/22 10:01:16;;;;;;;;;14.75;14.00;;;;;20.83;40.16;101115.78;5035055;28;45417;-76
2023/02/22 10:03:57;;;;;;;;;18.25;13.25;;;;;20.82;40.31;101122.91;5035240;28;45449;-76
2023/02/22 10:06:23;;;;;;;;;16.25;15.50;;;;;20.70;40.26;101105.72;5035263;28;46501;-76
2023/02/22 10:08:55;;;;;;;;;15.50;13.50;;;;;20.71;40.53;101113.47;5035687;28;45260;-77
2023/02/22 10:11:53;;;;;;;;;18.50;16.50;;;;;20.80;40.21;101122.25;5035339;28;45381;-76
2023/02/22 10:14:55;;;;;;;;;14.50;12.75;;;;;20.79;40.17;101125.06;5035559;28;45323;-76
2023/02/22 10:17:32;;;;;;;;;14.25;12.50;;;;;20.79;40.37;101122.41;5035239;28;45489;-76
2023/02/22 10:20:06;;;;;;;;;14.33;12.00;;;;;20.78;40.06;101129.53;5035215;28;45430;-75
2023/02/22 10:22:58;;;;;;;;;19.25;15.75;;;;;20.78;40.22;101132.16;5035222;28;45335;-76
2023/02/22 10:25:27;;;;;;;;;17.50;16.25;;;;;20.79;40.06;101127.72;5035638;28;45466;-76
2023/02/22 10:28:04;;;;;;;;;14.00;12.25;;;;;20.76;40.05;101131.50;5035028;28;46226;-76
2023/02/22 10:30:38;;;;;;;;;15.00;15.00;;;;;20.77;40.25;101124.38;5034604;28;45549;-76
2023/02/22 10:33:18;;;;;;;;;16.25;14.50;;;;;20.77;40.05;101129.66;5035144;28;45374;-77
2023/02/22 10:35:44;;;;;;;;;16.25;14.75;;;;;20.77;39.85;101127.03;5035087;28;45371;-76
2023/02/22 10:38:15;;;;;;;;;13.25;13.25;;;;;20.77;40.28;101124.38;5034704;28;47273;-76
2023/02/22 10:40:46;;;;;;;;;14.75;14.75;;;;;20.77;40.16;101125.22;5023770;28;45366;-77
2023/02/22 10:43:12;;;;;;;;;16.00;12.50;;;;;20.73;39.85;101121.25;5035154;28;45442;-76
2023/02/22 10:45:38;;;;;;;;;15.25;14.00;;;;;20.77;40.08;101119.91;5034630;28;45379;-77
2023/02/22 10:48:11;;;;;;;;;14.00;13.25;;;;;20.70;39.95;101113.66;5034750;28;46047;-74
2023/02/22 10:50:42;;;;;;;;;14.25;13.25;;;;;20.78;40.06;101124.22;5034698;28;45312;-76
2023/02/22 10:53:09;;;;;;;;;17.00;15.25;;;;;20.72;40.02;101109.84;5035089;28;45303;-73
2023/02/22 10:55:36;;;;;;;;;13.75;13.25;;;;;20.78;40.01;101118.09;5034897;28;45422;-76
2023/02/22 10:58:05;;;;;;;;;14.25;14.25;;;;;20.78;40.12;101120.75;5034605;28;46293;-75
2023/02/22 11:00:38;;;;;;;;;15.75;14.50;;;;;20.77;40.29;101122.56;5034290;28;45431;-76
2023/02/22 11:03:18;;;;;;;;;16.50;13.00;;;;;20.77;40.24;101127.03;5034635;28;45363;-73
2023/02/22 11:05:44;;;;;;;;;17.00;12.25;;;;;20.71;40.31;101112.66;5034813;28;45411;-75
2023/02/22 11:08:15;;;;;;;;;15.00;15.00;;;;;20.78;40.21;101128.69;5034166;28;45331;-76
2023/02/22 11:10:42;;;;;;;;;15.25;13.25;;;;;20.78;39.89;101124.22;5037660;28;45362;-76
2023/02/22 11:13:30;;;;;;;;;14.75;13.75;;;;;20.70;40.21;101117.13;5037762;28;45314;-76
2023/02/22 11:16:15;;;;;;;;;15.75;14.00;;;;;20.79;40.33;101127.72;5037835;28;45520;-75